createdAt,value
2023-04-16T00:01:25.483Z,50.69
2023-04-16T00:04:08.725Z,51.13
2023-04-16T00:06:52.019Z,51.25
2023-04-16T00:09:35.201Z,51.80
2023-04-16T00:12:18.708Z,52.77
2023-04-16T00:15:03.457Z,51.92
2023-04-16T00:17:47.204Z,52.32
2023-04-16T00:20:30.473Z,52.17
2023-04-16T00:23:13.648Z,52.71
2023-04-16T00:26:00.015Z,52.99
2023-04-16T00:28:43.799Z,53.16
2023-04-16T00:31:33.350Z,53.01
2023-04-16T00:34:16.522Z,53.46
2023-04-16T00:37:00.591Z,53.26
2023-04-16T00:39:43.706Z,53.27
2023-04-16T00:42:27.528Z,53.45
2023-04-16T00:45:12.553Z,53.33
2023-04-16T00:47:59.948Z,53.34
2023-04-16T00:50:44.132Z,53.76
2023-04-16T00:53:29.281Z,53.99
2023-04-16T00:56:13.660Z,53.81
2023-04-16T00:58:57.077Z,53.50
2023-04-16T01:01:40.350Z,53.86
2023-04-16T01:04:25.315Z,53.51
2023-04-16T01:07:08.933Z,53.59
2023-04-16T01:09:52.179Z,53.44
2023-04-16T01:12:35.788Z,53.52
2023-04-16T01:15:19.366Z,53.66
2023-04-16T01:18:02.850Z,54.30
2023-04-16T01:20:47.904Z,53.64
2023-04-16T01:23:31.315Z,53.77
2023-04-16T01:26:14.468Z,53.96
2023-04-16T01:28:57.599Z,54.33
2023-04-16T01:31:40.948Z,55.29
2023-04-16T01:34:24.365Z,54.35
2023-04-16T01:37:09.418Z,54.09
2023-04-16T01:39:52.770Z,54.22
2023-04-16T01:42:35.965Z,54.02
2023-04-16T01:45:19.275Z,53.95
2023-04-16T01:48:02.794Z,54.35
2023-04-16T01:50:46.404Z,54.06
2023-04-16T01:53:32.232Z,54.17
2023-04-16T01:56:15.464Z,54.20
2023-04-16T01:58:58.763Z,53.80
2023-04-16T02:01:44.293Z,53.80
2023-04-16T02:04:27.900Z,53.80
2023-04-16T02:07:11.699Z,54.47
2023-04-16T02:09:58.098Z,54.93
2023-04-16T02:12:41.307Z,55.47
2023-04-16T02:15:25.645Z,54.83
2023-04-16T02:18:08.967Z,55.27
2023-04-16T02:20:52.437Z,56.13
2023-04-16T02:23:35.738Z,56.56
2023-04-16T02:26:22.436Z,56.34
2023-04-16T02:29:05.688Z,56.73
2023-04-16T02:31:49.144Z,56.62
2023-04-16T02:34:33.779Z,56.75
2023-04-16T02:37:17.338Z,57.29
2023-04-16T02:40:00.452Z,56.32
2023-04-16T02:42:44.920Z,56.51
2023-04-16T02:45:28.468Z,56.90
2023-04-16T02:48:11.663Z,57.67
2023-04-16T02:50:55.035Z,57.48
2023-04-16T02:53:38.217Z,56.82
2023-04-16T02:56:21.969Z,57.21
2023-04-16T02:59:08.550Z,56.71
2023-04-16T03:01:54.291Z,57.83
2023-04-16T03:04:37.799Z,57.24
2023-04-16T03:07:21.391Z,57.22
2023-04-16T03:10:04.849Z,57.75
2023-04-16T03:12:48.017Z,58.12
2023-04-16T03:15:35.116Z,58.16
2023-04-16T03:18:18.477Z,58.83
2023-04-16T03:21:02.463Z,59.01
2023-04-16T03:23:45.724Z,57.95
2023-04-16T03:26:29.907Z,57.31
2023-04-16T03:29:13.017Z,56.09
2023-04-16T03:31:58.907Z,56.93
2023-04-16T03:34:42.351Z,56.90
2023-04-16T03:37:25.634Z,56.58
2023-04-16T03:40:10.279Z,57.27
2023-04-16T03:42:53.620Z,57.54
2023-04-16T03:45:36.799Z,56.83
2023-04-16T03:48:21.844Z,56.79
2023-04-16T03:51:05.927Z,57.02
2023-04-16T03:53:49.459Z,57.45
2023-04-16T03:56:32.739Z,58.36
2023-04-16T03:59:15.912Z,56.84
2023-04-16T04:01:59.533Z,56.77
2023-04-16T04:04:44.334Z,56.69
2023-04-16T04:07:27.575Z,56.30
2023-04-16T04:10:11.572Z,56.13
2023-04-16T04:12:54.937Z,55.91
2023-04-16T04:15:38.390Z,57.22
2023-04-16T04:18:21.509Z,56.84
2023-04-16T04:21:08.651Z,55.81
2023-04-16T04:23:51.882Z,57.08
2023-04-16T04:26:35.075Z,56.63
2023-04-16T04:29:18.259Z,55.94
2023-04-16T04:32:01.527Z,55.96
2023-04-16T04:34:44.764Z,57.85
2023-04-16T04:37:29.407Z,57.31
2023-04-16T04:40:13.238Z,55.12
2023-04-16T04:42:57.666Z,55.44
2023-04-16T04:45:41.585Z,56.23
2023-04-16T04:48:26.835Z,56.90
2023-04-16T04:51:10.536Z,57.53
2023-04-16T04:53:55.173Z,59.82
2023-04-16T04:56:38.288Z,59.12
2023-04-16T04:59:22.082Z,60.38
2023-04-16T05:02:05.330Z,57.88
2023-04-16T05:04:48.592Z,56.82
2023-04-16T05:07:32.376Z,57.07
2023-04-16T05:10:17.300Z,57.08
2023-04-16T05:13:00.685Z,57.14
2023-04-16T05:15:45.148Z,56.26
2023-04-16T05:18:28.305Z,56.34
2023-04-16T05:21:11.471Z,55.75
2023-04-16T05:23:55.255Z,55.62
2023-04-16T05:26:40.028Z,56.42
2023-04-16T05:29:23.286Z,55.18
2023-04-16T05:32:06.991Z,53.94
2023-04-16T05:34:50.103Z,54.19
2023-04-16T05:37:33.594Z,55.09
2023-04-16T05:40:16.889Z,54.26
2023-04-16T05:43:02.009Z,54.58
2023-04-16T05:45:45.316Z,56.36
2023-04-16T05:48:28.808Z,52.35
2023-04-16T05:51:12.177Z,51.12
2023-04-16T05:53:55.703Z,50.98
2023-04-16T05:56:39.056Z,50.62
2023-04-16T05:59:23.893Z,49.28
2023-04-16T06:02:08.072Z,49.25
2023-04-16T06:04:51.582Z,47.68
2023-04-16T06:07:34.714Z,46.96
2023-04-16T06:10:18.304Z,48.66
2023-04-16T06:13:02.001Z,46.99
2023-04-16T06:15:47.003Z,48.14
2023-04-16T06:18:30.789Z,48.23
2023-04-16T06:21:14.216Z,45.87
2023-04-16T06:23:57.609Z,47.66
2023-04-16T06:26:41.119Z,45.58
2023-04-16T06:29:33.528Z,45.84
2023-04-16T06:32:25.062Z,45.08
2023-04-16T06:35:09.099Z,45.78
2023-04-16T06:37:52.340Z,42.50
2023-04-16T06:40:37.190Z,41.19
2023-04-16T06:43:20.554Z,39.47
2023-04-16T06:46:03.675Z,39.55
2023-04-16T06:48:48.364Z,35.96
2023-04-16T06:51:32.204Z,37.99
2023-04-16T06:54:18.180Z,37.13
2023-04-16T06:57:01.783Z,37.79
2023-04-16T06:59:45.306Z,35.52
2023-04-16T07:02:30.830Z,33.48
2023-04-16T07:05:15.859Z,36.39
2023-04-16T07:08:00.618Z,38.50
2023-04-16T07:10:46.540Z,41.61
2023-04-16T07:13:30.590Z,40.50
2023-04-16T07:16:14.315Z,37.77
2023-04-16T07:18:57.650Z,38.27
2023-04-16T07:21:43.861Z,38.61
2023-04-16T07:24:27.114Z,36.50
2023-04-16T07:27:11.666Z,34.27
2023-04-16T07:29:55.509Z,35.94
2023-04-16T07:32:39.307Z,34.57
2023-04-16T07:35:22.706Z,33.52
2023-04-16T07:38:07.388Z,34.06
2023-04-16T07:40:51.147Z,32.61
2023-04-16T07:43:35.209Z,30.29
2023-04-16T07:46:20.074Z,32.09
2023-04-16T07:49:05.497Z,34.48
2023-04-16T07:51:48.758Z,33.29
2023-04-16T07:54:33.890Z,33.83
2023-04-16T07:57:17.324Z,31.14
2023-04-16T08:00:02.655Z,27.51
2023-04-16T08:02:46.086Z,25.44
2023-04-16T08:05:29.729Z,22.58
2023-04-16T08:08:13.169Z,19.74
2023-04-16T08:10:58.216Z,21.08
2023-04-16T08:13:41.372Z,20.90
2023-04-16T08:16:24.681Z,20.92
2023-04-16T08:19:08.137Z,21.82
2023-04-16T08:21:51.984Z,23.67
2023-04-16T08:24:35.307Z,25.35
2023-04-16T08:27:20.457Z,21.24
2023-04-16T08:30:03.854Z,18.70
2023-04-16T08:32:49.424Z,15.70
2023-04-16T08:35:33.338Z,16.48
2023-04-16T08:38:21.121Z,16.66
2023-04-16T08:41:08.251Z,17.72
2023-04-16T08:43:56.926Z,15.25
2023-04-16T08:46:42.606Z,17.04
2023-04-16T08:49:27.012Z,17.15
2023-04-16T08:52:16.364Z,16.34
2023-04-16T08:55:06.521Z,16.58
2023-04-16T08:57:53.732Z,18.32
2023-04-16T09:00:41.073Z,18.75
2023-04-16T09:03:24.616Z,19.25
2023-04-16T09:06:08.816Z,15.57
2023-04-16T09:08:54.317Z,13.79
2023-04-16T09:11:39.049Z,14.79
2023-04-16T09:14:23.743Z,14.20
2023-04-16T09:17:08.526Z,14.71
2023-04-16T09:19:51.743Z,14.33
2023-04-16T09:22:34.980Z,13.91
2023-04-16T09:25:18.686Z,16.15
2023-04-16T09:28:02.107Z,13.78
2023-04-16T09:30:45.491Z,13.14
2023-04-16T09:33:34.437Z,12.32
2023-04-16T09:36:24.746Z,12.70
2023-04-16T09:39:08.132Z,11.82
2023-04-16T09:41:54.853Z,11.79
2023-04-16T09:44:39.133Z,11.42
2023-04-16T09:47:24.307Z,11.34
2023-04-16T09:50:12.519Z,13.33
2023-04-16T09:52:56.751Z,14.68
2023-04-16T09:55:40.185Z,15.28
2023-04-16T09:58:25.201Z,16.03
2023-04-16T10:01:11.486Z,16.13
2023-04-16T10:03:56.617Z,16.78
2023-04-16T10:06:41.567Z,16.83
2023-04-16T10:09:24.755Z,15.76
2023-04-16T10:12:08.567Z,15.48
2023-04-16T10:14:51.753Z,14.20
2023-04-16T10:17:36.018Z,16.27
2023-04-16T10:20:19.914Z,17.45
2023-04-16T10:23:04.817Z,19.23
2023-04-16T10:25:49.839Z,17.89
2023-04-16T10:28:35.474Z,18.45
2023-04-16T10:31:20.168Z,17.29
2023-04-16T10:34:05.008Z,14.97
2023-04-16T10:36:53.667Z,13.97
2023-04-16T10:39:38.603Z,13.70
2023-04-16T10:42:22.097Z,12.22
2023-04-16T10:45:06.872Z,13.19
2023-04-16T10:47:50.216Z,12.07
2023-04-16T10:50:37.399Z,11.96
2023-04-16T10:53:26.868Z,11.79
2023-04-16T10:56:15.655Z,12.97
2023-04-16T10:59:00.327Z,12.31
2023-04-16T11:01:49.392Z,13.54
2023-04-16T11:04:37.175Z,17.27
2023-04-16T11:07:22.028Z,18.71
2023-04-16T11:10:06.935Z,19.44
2023-04-16T11:12:52.322Z,21.65
2023-04-16T11:15:35.553Z,22.67
2023-04-16T11:18:21.520Z,24.50
2023-04-16T11:21:08.904Z,24.93
2023-04-16T11:23:54.516Z,25.89
2023-04-16T11:26:40.636Z,25.76
2023-04-16T11:29:27.027Z,25.71
2023-04-16T11:32:12.369Z,25.14
2023-04-16T11:34:56.026Z,25.52
2023-04-16T11:37:40.611Z,27.85
2023-04-16T11:40:24.123Z,27.13
2023-04-16T11:43:17.483Z,27.20
2023-04-16T11:46:12.942Z,26.27
2023-04-16T11:49:03.516Z,28.54
2023-04-16T11:51:48.589Z,28.61
2023-04-16T11:54:35.086Z,28.02
2023-04-16T11:57:25.720Z,29.60
2023-04-16T12:00:11.113Z,29.33
2023-04-16T12:02:57.980Z,30.15
2023-04-16T12:05:42.167Z,31.57
2023-04-16T12:08:31.138Z,31.12
2023-04-16T12:11:14.588Z,31.70
2023-04-16T12:14:10.767Z,31.30
2023-04-16T12:16:54.383Z,32.05
2023-04-16T12:19:51.789Z,31.68
2023-04-16T12:22:37.434Z,32.60
2023-04-16T12:25:21.765Z,33.60
2023-04-16T12:28:05.195Z,33.75
2023-04-16T12:30:51.952Z,34.73
2023-04-16T12:33:37.113Z,33.81
2023-04-16T12:36:22.073Z,35.18
2023-04-16T12:39:06.059Z,32.96
2023-04-16T12:41:49.625Z,33.03
2023-04-16T12:44:37.346Z,32.58
2023-04-16T12:47:23.232Z,33.71
2023-04-16T12:50:09.638Z,34.65
2023-04-16T12:52:54.923Z,33.03
2023-04-16T12:55:45.639Z,33.49
2023-04-16T12:58:29.394Z,33.12
2023-04-16T13:01:13.875Z,32.42
2023-04-16T13:03:58.500Z,34.29
2023-04-16T13:06:42.933Z,35.49
2023-04-16T13:09:29.174Z,36.40
2023-04-16T13:12:16.401Z,36.01
2023-04-16T13:15:07.321Z,35.80
2023-04-16T13:17:51.421Z,38.42
2023-04-16T13:20:35.560Z,37.64
2023-04-16T13:23:21.149Z,38.31
2023-04-16T13:26:06.663Z,37.68
2023-04-16T13:28:50.558Z,37.36
2023-04-16T13:31:36.456Z,37.59
2023-04-16T13:34:21.563Z,38.26
2023-04-16T13:37:05.456Z,37.98
2023-04-16T13:39:52.820Z,37.34
2023-04-16T13:42:38.019Z,37.60
2023-04-16T13:45:22.169Z,37.46
2023-04-16T13:48:07.501Z,35.97
2023-04-16T13:50:51.030Z,37.29
2023-04-16T13:53:34.639Z,37.50
2023-04-16T13:56:19.372Z,37.10
2023-04-16T13:59:05.431Z,38.53
2023-04-16T14:01:48.753Z,38.88
2023-04-16T14:04:31.981Z,40.39
2023-04-16T14:07:16.550Z,39.75
2023-04-16T14:10:00.737Z,42.27
2023-04-16T14:12:44.804Z,41.51
2023-04-16T14:15:30.976Z,42.84
2023-04-16T14:18:14.338Z,45.02
2023-04-16T14:20:57.757Z,46.82
2023-04-16T14:23:41.232Z,47.69
2023-04-16T14:26:24.456Z,47.89
2023-04-16T14:29:13.405Z,47.42
2023-04-16T14:31:58.322Z,48.81
2023-04-16T14:34:41.830Z,48.52
2023-04-16T14:37:26.366Z,48.60
2023-04-16T14:40:12.380Z,48.31
2023-04-16T14:42:55.622Z,48.62
2023-04-16T14:45:39.195Z,48.58
2023-04-16T14:48:23.754Z,50.34
2023-04-16T14:51:07.370Z,51.63
2023-04-16T14:53:50.518Z,51.77
2023-04-16T14:56:33.745Z,51.58
2023-04-16T14:59:17.883Z,53.24
2023-04-16T15:02:01.252Z,53.87
2023-04-16T15:04:45.944Z,53.97
2023-04-16T15:07:29.756Z,54.66
2023-04-16T15:10:13.877Z,55.51
2023-04-16T15:12:57.402Z,56.99
2023-04-16T15:15:40.793Z,58.00
2023-04-16T15:18:24.364Z,57.85
2023-04-16T15:21:11.815Z,58.86
2023-04-16T15:23:55.681Z,58.58
2023-04-16T15:26:39.197Z,58.98
2023-04-16T15:29:22.844Z,59.13
2023-04-16T15:32:07.091Z,58.36
2023-04-16T15:34:50.234Z,57.92
2023-04-16T15:37:34.834Z,56.62
2023-04-16T15:40:19.054Z,56.27
2023-04-16T15:43:02.309Z,56.54
2023-04-16T15:45:45.541Z,57.39
2023-04-16T15:48:28.631Z,57.97
2023-04-16T15:51:13.548Z,58.42
2023-04-16T15:53:58.260Z,59.13
2023-04-16T15:56:41.940Z,59.18
2023-04-16T15:59:25.463Z,60.81
2023-04-16T16:02:08.660Z,61.21
2023-04-16T16:04:52.135Z,61.64
2023-04-16T16:07:37.079Z,60.33
2023-04-16T16:10:21.697Z,61.76
2023-04-16T16:13:06.146Z,61.35
2023-04-16T16:15:50.902Z,61.27
2023-04-16T16:18:34.426Z,60.66
2023-04-16T16:21:17.624Z,61.76
2023-04-16T16:24:01.653Z,61.81
2023-04-16T16:26:46.312Z,61.67
2023-04-16T16:29:29.571Z,61.72
2023-04-16T16:32:13.192Z,62.23
2023-04-16T16:34:56.375Z,62.50
2023-04-16T16:37:40.804Z,62.40
2023-04-16T16:40:25.273Z,62.99
2023-04-16T16:43:09.951Z,63.37
2023-04-16T16:45:53.179Z,63.60
2023-04-16T16:48:37.341Z,63.11
2023-04-16T16:51:20.530Z,63.80
2023-04-16T16:54:03.701Z,64.41
2023-04-16T16:56:46.951Z,64.50
2023-04-16T16:59:31.756Z,64.61
2023-04-16T17:02:16.895Z,64.64
2023-04-16T17:05:01.862Z,66.14
2023-04-16T17:07:45.366Z,66.58
2023-04-16T17:10:28.800Z,66.83
2023-04-16T17:13:13.876Z,67.48
2023-04-16T17:15:58.613Z,68.11
2023-04-16T17:18:41.879Z,68.37
2023-04-16T17:21:28.199Z,68.13
2023-04-16T17:24:11.821Z,68.95
2023-04-16T17:26:56.077Z,68.74
2023-04-16T17:29:39.325Z,70.21
2023-04-16T17:32:24.316Z,70.37
2023-04-16T17:35:09.473Z,71.36
2023-04-16T17:37:54.362Z,70.61
2023-04-16T17:40:37.864Z,70.71
2023-04-16T17:43:21.170Z,72.13
2023-04-16T17:46:04.994Z,71.71
2023-04-16T17:48:50.178Z,71.81
2023-04-16T17:51:33.540Z,71.10
2023-04-16T17:54:16.847Z,71.28
2023-04-16T17:57:00.654Z,70.63
2023-04-16T17:59:44.014Z,70.57
2023-04-16T18:02:27.535Z,69.81
2023-04-16T18:05:24.212Z,69.60
2023-04-16T18:08:07.690Z,69.58
2023-04-16T18:10:51.337Z,69.74
2023-04-16T18:13:35.000Z,69.81
2023-04-16T18:16:18.798Z,69.84
2023-04-16T18:19:02.132Z,70.21
2023-04-16T18:21:55.481Z,71.14
2023-04-16T18:24:39.945Z,72.13
2023-04-16T18:27:23.495Z,71.80
2023-04-16T18:30:15.564Z,72.41
2023-04-16T18:35:49.947Z,72.58
2023-04-16T18:38:35.214Z,72.57
2023-04-16T18:41:18.994Z,72.82
2023-04-16T18:44:02.265Z,72.44
2023-04-16T18:46:46.386Z,72.52
2023-04-16T18:49:29.721Z,72.57
2023-04-16T18:52:13.012Z,72.33
2023-04-16T18:54:57.810Z,73.48
2023-04-16T18:57:41.326Z,73.25
2023-04-16T19:00:24.810Z,73.17
2023-04-16T19:03:08.054Z,73.16
2023-04-16T19:05:53.027Z,72.31
2023-04-16T19:08:36.516Z,72.34
2023-04-16T19:11:21.104Z,71.87
2023-04-16T19:14:05.940Z,72.99
2023-04-16T19:16:49.776Z,73.65
2023-04-16T19:19:32.991Z,73.62
2023-04-16T19:22:16.101Z,72.94
2023-04-16T19:25:02.194Z,72.56
2023-04-16T19:27:46.697Z,72.83
2023-04-16T19:30:31.224Z,73.41
2023-04-16T19:33:14.398Z,73.17
2023-04-16T19:35:57.605Z,73.37
2023-04-16T19:38:43.012Z,73.36
2023-04-16T19:41:26.429Z,73.26
2023-04-16T19:44:11.741Z,72.52
2023-04-16T19:46:54.937Z,73.36
2023-04-16T19:49:38.693Z,73.26
2023-04-16T19:52:22.125Z,73.63
2023-04-16T19:55:05.824Z,73.79
2023-04-16T19:57:49.864Z,74.04
2023-04-16T20:00:35.428Z,74.39
2023-04-16T20:03:30.198Z,74.03
2023-04-16T20:06:13.657Z,73.90
2023-04-16T20:08:58.277Z,73.39
2023-04-16T20:11:47.342Z,73.18
2023-04-16T20:14:30.634Z,72.59
2023-04-16T20:17:19.666Z,72.18
2023-04-16T20:20:10.299Z,72.34
2023-04-16T20:22:53.884Z,71.87
2023-04-16T20:25:41.969Z,71.49
2023-04-16T20:28:27.764Z,71.25
2023-04-16T20:31:18.427Z,71.67
2023-04-16T20:34:05.430Z,71.45
2023-04-16T20:36:49.728Z,71.20
2023-04-16T20:39:34.278Z,71.76
2023-04-16T20:42:22.276Z,71.98
2023-04-16T20:45:07.452Z,73.57
2023-04-16T20:47:51.299Z,74.42
2023-04-16T20:50:36.067Z,74.92
2023-04-16T20:53:20.239Z,75.43
2023-04-16T20:56:09.544Z,74.78
2023-04-16T20:58:53.778Z,74.86
2023-04-16T21:01:37.448Z,75.74
2023-04-16T21:04:20.921Z,75.72
2023-04-16T21:07:05.891Z,75.01
2023-04-16T21:09:49.170Z,73.07
2023-04-16T21:12:32.429Z,73.23
2023-04-16T21:15:15.784Z,73.46
2023-04-16T21:17:59.245Z,73.42
2023-04-16T21:20:42.508Z,73.67
2023-04-16T21:23:27.105Z,74.20
2023-04-16T21:26:11.558Z,73.78
2023-04-16T21:28:55.231Z,74.20
2023-04-16T21:31:38.808Z,75.68
2023-04-16T21:34:22.477Z,76.84
2023-04-16T21:37:14.710Z,78.00
2023-04-16T21:39:59.287Z,78.10
2023-04-16T21:42:42.545Z,78.43
2023-04-16T21:45:26.040Z,78.33
2023-04-16T21:48:09.461Z,79.33
2023-04-16T21:50:58.294Z,78.91
2023-04-16T21:53:41.425Z,79.55
2023-04-16T21:56:26.683Z,78.39
2023-04-16T21:59:11.336Z,78.42
2023-04-16T22:01:55.336Z,78.78
2023-04-16T22:04:38.981Z,79.39
2023-04-16T22:07:22.153Z,79.67
2023-04-16T22:10:06.927Z,79.68
2023-04-16T22:12:54.974Z,79.42
2023-04-16T22:15:40.576Z,79.71
2023-04-16T22:18:26.772Z,79.18
2023-04-16T22:21:10.993Z,79.57
2023-04-16T22:23:54.375Z,79.67
2023-04-16T22:26:37.588Z,79.02
2023-04-16T22:29:22.406Z,79.18
2023-04-16T22:32:06.175Z,79.42
2023-04-16T22:34:49.773Z,79.13
2023-04-16T22:37:33.591Z,78.86
2023-04-16T22:40:17.560Z,77.99
2023-04-16T22:43:00.699Z,78.55
2023-04-16T22:45:46.833Z,78.25
2023-04-16T22:48:30.143Z,78.64
2023-04-16T22:51:13.626Z,78.28
2023-04-16T22:53:56.829Z,78.21
2023-04-16T22:56:40.105Z,78.64
2023-04-16T22:59:23.455Z,78.57
2023-04-16T23:02:08.148Z,77.49
2023-04-16T23:04:51.460Z,76.33
2023-04-16T23:07:34.929Z,76.07
2023-04-16T23:10:18.379Z,76.26
2023-04-16T23:13:02.074Z,76.86
2023-04-16T23:15:47.487Z,77.11
2023-04-16T23:18:32.154Z,77.21
2023-04-16T23:21:15.565Z,77.13
2023-04-16T23:23:59.327Z,75.90
2023-04-16T23:26:42.492Z,75.75
2023-04-16T23:29:25.777Z,75.19
2023-04-16T23:32:09.337Z,75.23
2023-04-16T23:34:54.541Z,75.55
2023-04-16T23:37:37.875Z,75.56
2023-04-16T23:40:21.128Z,76.23
2023-04-16T23:43:04.527Z,76.26
2023-04-16T23:45:47.794Z,75.69
2023-04-16T23:48:31.163Z,75.20
2023-04-16T23:51:16.524Z,75.97
2023-04-16T23:54:00.055Z,76.45
2023-04-16T23:56:43.466Z,75.55
2023-04-16T23:59:27.882Z,74.87
